Terminal Aerodrome Forecast
Issued by NWS

Home | Current Version | Previous Version | Text Only | Print | Product List | Glossary On
Versions: 1 2 3 4 5 6 7 8 9 10 11 12 13 14 15 16 17
127
FTUS44 KTSA 181739
TAFXNA
TAF
KXNA 181739Z 1818/1918 14005KT P6SM OVC035
     FM190000 13004KT P6SM OVC020
     FM190400 13004KT 3SM BR OVC005=

USA.gov is the U.S. government's official web portal to all federal, state and local government web resources and services.